Time;durP1;ratioP1;P1;durP2;ratioP2;P2;SDS_P1;SDS_P2;PMS_P1;PMS_P2;Temp;Humidity;BMP_temperature;BMP_pressure;BME280_temperature;BME280_humidity;BME280_pressure;Samples;Min_cycle;Max_cycle;Signal;HPM_P1;HPM_P2
2020/12/16 00:02:13;;;;;;;;;;;9.20;86.50;;;;;;5005780;28;19959;-44
2020/12/16 00:04:39;;;;;;;;;;;9.20;86.50;;;;;;5005989;28;20223;-44
2020/12/16 00:07:06;;;;;;;;;;;9.20;86.50;;;;;;5002586;28;19930;-44
2020/12/16 00:09:32;;;;;;;;;;;9.20;86.50;;;;;;5005679;28;19933;-44
2020/12/16 00:11:59;;;;;;;;;;;9.20;86.50;;;;;;5002149;28;19929;-44
2020/12/16 00:14:25;;;;;;;;;;;9.20;86.50;;;;;;5006478;28;19929;-45
2020/12/16 00:16:53;;;;;;;;;;;9.20;86.50;;;;;;5001300;28;19933;-44
2020/12/16 00:19:19;;;;;;;;;;;9.20;86.50;;;;;;5004321;28;19933;-44
2020/12/16 00:21:45;;;;;;;;;;;9.20;86.50;;;;;;5006376;28;20377;-43
2020/12/16 00:24:12;;;;;;;;;;;9.20;86.50;;;;;;5002113;28;19925;-44
2020/12/16 00:26:38;;;;;;;;;;;9.20;86.50;;;;;;5002337;28;20301;-45
2020/12/16 00:29:04;;;;;;;;;;;9.20;86.40;;;;;;5006893;28;19925;-44
2020/12/16 00:31:30;;;;;;;;;;;9.20;86.40;;;;;;5009610;28;19933;-44
2020/12/16 00:33:57;;;;;;;;;;;9.20;86.50;;;;;;5009056;28;19933;-44
2020/12/16 00:36:23;;;;;;;;;;;9.20;86.50;;;;;;5007187;28;19925;-45
2020/12/16 00:38:51;;;;;;;;;;;9.20;86.40;;;;;;5009742;28;19964;-43
2020/12/16 00:41:17;;;;;;;;;;;9.20;86.50;;;;;;5008553;28;19936;-44
2020/12/16 00:43:44;;;;;;;;;;;9.20;86.50;;;;;;5008384;28;19933;-45
2020/12/16 00:46:10;;;;;;;;;;;9.20;86.50;;;;;;5009052;28;19949;-44
2020/12/16 00:48:36;;;;;;;;;;;9.20;86.50;;;;;;5013124;28;19926;-44
2020/12/16 00:51:02;;;;;;;;;;;9.20;86.50;;;;;;5010045;28;19925;-44
2020/12/16 00:53:28;;;;;;;;;;;9.20;86.50;;;;;;5005628;28;19932;-45
2020/12/16 00:55:55;;;;;;;;;;;9.20;86.50;;;;;;5013655;28;19925;-44
2020/12/16 00:58:23;;;;;;;;;;;9.20;86.50;;;;;;5004597;28;19929;-44
2020/12/16 01:00:50;;;;;;;;;;;9.20;86.50;;;;;;4997244;28;19956;-44
2020/12/16 01:03:16;;;;;;;;;;;9.20;86.50;;;;;;5007194;28;19933;-43
2020/12/16 01:05:42;;;;;;;;;;;9.20;86.50;;;;;;5010706;28;19935;-45
2020/12/16 01:08:12;;;;;;;;;;;9.20;86.60;;;;;;5004946;28;19925;-44
2020/12/16 01:10:38;;;;;;;;;;;9.20;86.50;;;;;;5007410;28;20281;-45
2020/12/16 01:13:05;;;;;;;;;;;9.20;86.50;;;;;;5006970;28;20402;-44
2020/12/16 01:15:31;;;;;;;;;;;9.20;86.70;;;;;;5007441;28;19949;-44
2020/12/16 01:17:58;;;;;;;;;;;9.20;86.60;;;;;;5005766;28;19939;-44
2020/12/16 01:20:24;;;;;;;;;;;9.20;86.60;;;;;;5002943;28;19929;-43
2020/12/16 01:23:06;;;;;;;;;;;9.20;86.60;;;;;;5002023;28;20015;-44
2020/12/16 01:25:33;;;;;;;;;;;9.20;86.60;;;;;;5009099;28;19933;-44
2020/12/16 01:28:01;;;;;;;;;;;9.10;86.60;;;;;;5008318;28;19925;-43
2020/12/16 01:30:28;;;;;;;;;;;9.20;86.50;;;;;;5007064;28;19979;-44
2020/12/16 01:32:55;;;;;;;;;;;9.10;86.50;;;;;;4990490;28;19933;-44
2020/12/16 01:35:21;;;;;;;;;;;9.10;86.60;;;;;;5003904;28;19933;-44
2020/12/16 01:37:47;;;;;;;;;;;9.20;86.50;;;;;;5001830;28;19925;-44
2020/12/16 01:40:14;;;;;;;;;;;9.10;86.40;;;;;;5006750;28;20288;-44
2020/12/16 01:42:43;;;;;;;;;;;9.20;86.30;;;;;;5004276;28;19929;-44
2020/12/16 01:45:14;;;;;;;;;;;9.10;86.40;;;;;;5003165;28;19932;-44
2020/12/16 01:47:41;;;;;;;;;;;9.10;86.20;;;;;;5007901;28;19931;-43
2020/12/16 01:50:09;;;;;;;;;;;9.10;86.30;;;;;;5005064;28;19941;-44
2020/12/16 01:52:36;;;;;;;;;;;9.10;86.20;;;;;;5006310;28;19929;-44
2020/12/16 01:55:07;;;;;;;;;;;9.10;86.10;;;;;;5006767;28;20409;-45
2020/12/16 01:57:40;;;;;;;;;;;9.20;86.10;;;;;;5008954;28;20325;-44
2020/12/16 02:00:07;;;;;;;;;;;9.10;86.10;;;;;;5005720;28;19933;-44
2020/12/16 02:02:38;;;;;;;;;;;9.10;86.10;;;;;;5006915;28;20019;-43
2020/12/16 02:05:04;;;;;;;;;;;9.10;86.10;;;;;;5013295;28;20377;-44
2020/12/16 02:07:39;;;;;;;;;;;9.10;86.20;;;;;;5008006;28;20028;-44
2020/12/16 02:10:05;;;;;;;;;;;9.10;86.10;;;;;;5007451;28;19930;-44
2020/12/16 02:12:35;;;;;;;;;;;9.10;86.00;;;;;;5008473;28;19984;-44
2020/12/16 02:15:03;;;;;;;;;;;9.10;85.90;;;;;;5007414;28;20369;-44
2020/12/16 02:17:29;;;;;;;;;;;9.10;85.90;;;;;;5010005;28;20370;-45
2020/12/16 02:19:58;;;;;;;;;;;9.10;85.90;;;;;;5006147;28;19929;-44
2020/12/16 02:22:25;;;;;;;;;;;9.10;86.00;;;;;;5004527;28;19925;-44
2020/12/16 02:25:05;;;;;;;;;;;9.00;86.00;;;;;;5004675;28;19929;-44
2020/12/16 02:27:31;;;;;;;;;;;9.00;86.10;;;;;;5006899;28;19987;-45
2020/12/16 02:29:57;;;;;;;;;;;9.00;86.00;;;;;;5023134;28;19934;-44
2020/12/16 02:32:25;;;;;;;;;;;9.00;86.10;;;;;;5004839;28;19976;-44
2020/12/16 02:34:52;;;;;;;;;;;9.00;86.10;;;;;;5010181;28;20297;-44
2020/12/16 02:37:18;;;;;;;;;;;9.00;85.90;;;;;;5008644;28;19984;-44
2020/12/16 02:39:45;;;;;;;;;;;9.00;85.90;;;;;;5003736;28;20316;-44
2020/12/16 02:42:11;;;;;;;;;;;9.00;85.80;;;;;;5021652;28;19940;-44
2020/12/16 02:44:38;;;;;;;;;;;9.00;85.80;;;;;;5005785;28;19929;-45
2020/12/16 02:47:05;;;;;;;;;;;8.90;86.00;;;;;;5005608;28;19933;-43
2020/12/16 02:49:31;;;;;;;;;;;8.90;86.10;;;;;;5006221;28;19933;-44
2020/12/16 02:51:58;;;;;;;;;;;8.90;86.00;;;;;;5008570;28;19936;-44
2020/12/16 02:54:27;;;;;;;;;;;9.00;85.90;;;;;;5007626;28;19933;-44
2020/12/16 02:56:57;;;;;;;;;;;9.00;85.90;;;;;;5006736;28;19941;-44
2020/12/16 02:59:24;;;;;;;;;;;8.90;85.80;;;;;;5004984;28;20040;-44
2020/12/16 03:01:51;;;;;;;;;;;8.90;86.00;;;;;;5006918;28;20281;-44
2020/12/16 03:04:20;;;;;;;;;;;8.90;86.10;;;;;;5006226;28;19925;-44
2020/12/16 03:06:47;;;;;;;;;;;8.90;86.20;;;;;;5006395;28;19925;-44
2020/12/16 03:09:14;;;;;;;;;;;8.90;86.10;;;;;;5006639;28;19926;-44
2020/12/16 03:11:43;;;;;;;;;;;8.90;86.10;;;;;;5006375;28;20376;-44
2020/12/16 03:14:12;;;;;;;;;;;8.90;86.00;;;;;;5002054;28;20393;-45
2020/12/16 03:16:40;;;;;;;;;;;8.90;85.90;;;;;;5003937;28;20472;-45
2020/12/16 03:19:06;;;;;;;;;;;8.90;86.00;;;;;;5008786;28;19930;-45
2020/12/16 03:21:35;;;;;;;;;;;8.90;86.00;;;;;;5003667;28;20336;-44
2020/12/16 03:24:18;;;;;;;;;;;9.00;85.90;;;;;;5004840;28;19937;-44
2020/12/16 03:26:46;;;;;;;;;;;9.00;85.90;;;;;;5006702;28;19939;-43
2020/12/16 03:29:12;;;;;;;;;;;9.00;85.90;;;;;;5002131;28;19929;-43
2020/12/16 03:31:41;;;;;;;;;;;9.00;85.90;;;;;;5007350;28;19925;-44
2020/12/16 03:34:07;;;;;;;;;;;9.00;85.90;;;;;;5004654;28;19961;-45
2020/12/16 03:36:34;;;;;;;;;;;9.00;85.90;;;;;;5004211;28;19954;-44
2020/12/16 03:39:01;;;;;;;;;;;9.00;85.90;;;;;;5001952;28;20372;-45
2020/12/16 03:41:27;;;;;;;;;;;9.00;86.00;;;;;;5006325;28;19931;-45
2020/12/16 03:43:54;;;;;;;;;;;9.00;86.00;;;;;;5002751;28;20096;-44
2020/12/16 03:46:21;;;;;;;;;;;9.00;86.10;;;;;;5005622;28;19926;-45
2020/12/16 03:48:47;;;;;;;;;;;9.10;86.00;;;;;;5006428;28;19934;-44
2020/12/16 03:51:14;;;;;;;;;;;9.10;86.00;;;;;;5021367;28;19929;-44
2020/12/16 03:53:42;;;;;;;;;;;9.10;86.00;;;;;;5005663;28;19931;-45
2020/12/16 03:56:12;;;;;;;;;;;9.10;86.00;;;;;;5006423;28;20284;-45
2020/12/16 03:58:42;;;;;;;;;;;9.10;86.00;;;;;;4999041;28;20012;-44
2020/12/16 04:01:09;;;;;;;;;;;9.10;86.00;;;;;;5003598;28;20458;-43
2020/12/16 04:03:35;;;;;;;;;;;9.10;86.00;;;;;;5004586;28;19930;-44
2020/12/16 04:06:05;;;;;;;;;;;9.10;86.00;;;;;;5006349;28;19937;-44
2020/12/16 04:08:32;;;;;;;;;;;9.10;86.00;;;;;;5006554;28;19935;-44
2020/12/16 04:10:58;;;;;;;;;;;9.10;86.10;;;;;;5006019;28;19996;-44
2020/12/16 04:13:25;;;;;;;;;;;9.10;86.10;;;;;;5003023;28;19935;-45
2020/12/16 04:15:51;;;;;;;;;;;9.10;86.10;;;;;;5006232;28;19925;-44
2020/12/16 04:18:20;;;;;;;;;;;9.10;86.10;;;;;;5004849;28;19940;-44
2020/12/16 04:20:46;;;;;;;;;;;9.10;86.20;;;;;;5008957;28;19925;-44
2020/12/16 04:23:12;;;;;;;;;;;9.10;86.30;;;;;;5005676;28;19983;-44
2020/12/16 04:25:38;;;;;;;;;;;9.10;86.30;;;;;;5007768;28;19929;-44
2020/12/16 04:28:04;;;;;;;;;;;9.20;86.30;;;;;;5005628;28;19957;-44
2020/12/16 04:30:31;;;;;;;;;;;9.20;86.30;;;;;;5003727;28;19934;-45
2020/12/16 04:32:59;;;;;;;;;;;9.20;86.20;;;;;;5002324;28;19932;-44
2020/12/16 04:35:26;;;;;;;;;;;9.20;86.20;;;;;;5006210;28;20046;-45
2020/12/16 04:37:53;;;;;;;;;;;9.20;86.20;;;;;;5004466;28;19955;-45
2020/12/16 04:40:22;;;;;;;;;;;9.20;86.10;;;;;;5002405;28;19929;-45
2020/12/16 04:43:02;;;;;;;;;;;9.20;86.20;;;;;;5004119;28;19940;-45
2020/12/16 04:45:29;;;;;;;;;;;9.20;86.20;;;;;;5003039;28;19925;-44
2020/12/16 04:47:56;;;;;;;;;;;9.20;86.20;;;;;;5005137;28;19931;-45
2020/12/16 04:50:23;;;;;;;;;;;9.20;86.20;;;;;;5003780;28;19926;-45
2020/12/16 04:52:50;;;;;;;;;;;9.20;86.20;;;;;;5007116;28;19933;-44
2020/12/16 04:55:20;;;;;;;;;;;9.20;86.20;;;;;;5004307;28;20419;-44
2020/12/16 04:57:50;;;;;;;;;;;9.20;86.20;;;;;;5005783;28;19925;-44
2020/12/16 05:00:18;;;;;;;;;;;9.20;86.30;;;;;;5005330;28;19951;-44
2020/12/16 05:02:57;;;;;;;;;;;9.30;86.20;;;;;;5004317;28;19936;-45
2020/12/16 05:05:24;;;;;;;;;;;9.20;86.20;;;;;;5006955;28;19933;-44
2020/12/16 05:07:51;;;;;;;;;;;9.20;86.30;;;;;;5005902;28;19929;-45
2020/12/16 05:10:29;;;;;;;;;;;9.30;86.30;;;;;;5003873;28;19937;-44
2020/12/16 05:13:05;;;;;;;;;;;9.30;86.20;;;;;;5006017;28;20195;-45
2020/12/16 05:15:31;;;;;;;;;;;9.30;86.30;;;;;;5006005;28;19968;-43
2020/12/16 05:18:05;;;;;;;;;;;9.30;86.30;;;;;;4991508;28;19933;-44
2020/12/16 05:20:32;;;;;;;;;;;9.30;86.30;;;;;;4987336;28;19930;-45
2020/12/16 05:22:59;;;;;;;;;;;9.30;86.30;;;;;;4985723;28;19941;-45
2020/12/16 05:25:31;;;;;;;;;;;9.30;86.40;;;;;;4989234;28;20350;-43
2020/12/16 05:27:58;;;;;;;;;;;9.30;86.40;;;;;;4993053;28;19941;-43
2020/12/16 05:30:25;;;;;;;;;;;9.30;86.40;;;;;;4985462;28;20308;-45
2020/12/16 05:32:52;;;;;;;;;;;9.30;86.50;;;;;;5001815;28;19932;-45
2020/12/16 05:35:21;;;;;;;;;;;9.30;86.50;;;;;;5006724;28;19926;-45
2020/12/16 05:37:49;;;;;;;;;;;9.40;86.40;;;;;;5007520;28;19941;-45
2020/12/16 05:40:22;;;;;;;;;;;9.40;86.40;;;;;;5006232;28;19925;-43
2020/12/16 05:42:49;;;;;;;;;;;9.40;86.40;;;;;;5007823;28;19925;-45
2020/12/16 05:45:20;;;;;;;;;;;9.40;86.50;;;;;;4994021;28;20023;-44
2020/12/16 05:47:56;;;;;;;;;;;9.40;86.50;;;;;;5002362;28;19980;-43
2020/12/16 05:50:23;;;;;;;;;;;9.40;86.40;;;;;;5007260;28;19929;-45
2020/12/16 05:53:08;;;;;;;;;;;9.40;86.40;;;;;;5004473;28;20449;-43
2020/12/16 05:55:51;;;;;;;;;;;9.40;86.50;;;;;;5008757;28;20461;-45
2020/12/16 05:58:18;;;;;;;;;;;9.40;86.60;;;;;;5007691;28;19936;-45
2020/12/16 06:00:46;;;;;;;;;;;9.40;86.60;;;;;;5007192;28;20365;-45
2020/12/16 06:03:19;;;;;;;;;;;9.40;86.70;;;;;;5008635;28;19925;-45
2020/12/16 06:05:47;;;;;;;;;;;9.40;86.80;;;;;;5003363;28;20281;-45
2020/12/16 06:08:13;;;;;;;;;;;9.40;86.80;;;;;;5006864;28;20000;-45
2020/12/16 06:10:44;;;;;;;;;;;9.40;86.80;;;;;;5010198;28;19969;-45
2020/12/16 06:13:13;;;;;;;;;;;9.40;86.80;;;;;;5006531;28;19943;-45
2020/12/16 06:15:46;;;;;;;;;;;9.40;86.80;;;;;;5008060;28;20014;-44
2020/12/16 06:18:14;;;;;;;;;;;9.40;86.90;;;;;;5006616;28;20008;-43
2020/12/16 06:20:41;;;;;;;;;;;9.40;86.80;;;;;;5005141;28;19929;-44
2020/12/16 06:23:14;;;;;;;;;;;9.40;86.90;;;;;;5007361;28;19929;-45
2020/12/16 06:25:44;;;;;;;;;;;9.40;86.90;;;;;;5006133;28;19932;-45
2020/12/16 06:28:11;;;;;;;;;;;9.40;86.90;;;;;;5006386;28;19937;-44
2020/12/16 06:30:41;;;;;;;;;;;9.40;87.00;;;;;;5005644;28;19929;-45
2020/12/16 06:33:14;;;;;;;;;;;9.40;87.00;;;;;;5007021;28;20366;-45
2020/12/16 06:35:44;;;;;;;;;;;9.40;87.00;;;;;;5008551;28;19929;-44
2020/12/16 06:38:18;;;;;;;;;;;9.40;87.10;;;;;;5006502;28;20296;-45
2020/12/16 06:40:46;;;;;;;;;;;9.40;87.00;;;;;;5004415;28;19929;-45
2020/12/16 06:43:31;;;;;;;;;;;9.50;87.00;;;;;;5008065;28;19933;-44
2020/12/16 06:46:20;;;;;;;;;;;9.50;87.00;;;;;;5004233;28;20889;-45
2020/12/16 06:48:50;;;;;;;;;;;9.50;87.00;;;;;;4994276;28;20385;-43
2020/12/16 06:51:18;;;;;;;;;;;9.50;86.90;;;;;;5006118;28;19933;-44
2020/12/16 06:53:45;;;;;;;;;;;9.50;86.90;;;;;;5006777;28;20293;-43
2020/12/16 06:56:25;;;;;;;;;;;9.50;86.80;;;;;;5003721;28;19930;-44
2020/12/16 06:58:51;;;;;;;;;;;9.50;86.90;;;;;;5007712;28;19933;-44
2020/12/16 07:01:17;;;;;;;;;;;9.50;86.90;;;;;;5007296;28;19929;-44
2020/12/16 07:03:43;;;;;;;;;;;9.50;87.00;;;;;;5005890;28;20442;-45
2020/12/16 07:06:11;;;;;;;;;;;9.60;87.10;;;;;;5007584;28;19929;-44
2020/12/16 07:08:38;;;;;;;;;;;9.60;87.10;;;;;;5018081;28;19938;-45
2020/12/16 07:11:05;;;;;;;;;;;9.60;87.10;;;;;;5006037;28;19925;-44
2020/12/16 07:13:33;;;;;;;;;;;9.60;87.00;;;;;;5008099;28;19978;-44
2020/12/16 07:16:00;;;;;;;;;;;9.60;86.90;;;;;;5006020;28;20276;-45
2020/12/16 07:18:27;;;;;;;;;;;9.60;86.90;;;;;;5004779;28;19932;-44
2020/12/16 07:20:58;;;;;;;;;;;9.60;87.00;;;;;;5004981;28;19933;-44
2020/12/16 07:23:28;;;;;;;;;;;9.60;87.00;;;;;;5005818;28;20024;-44
2020/12/16 07:26:00;;;;;;;;;;;9.60;87.10;;;;;;5004952;28;19933;-45
2020/12/16 07:28:27;;;;;;;;;;;9.60;87.10;;;;;;5004713;28;19925;-44
2020/12/16 07:30:53;;;;;;;;;;;9.60;87.20;;;;;;5005073;28;19925;-44
2020/12/16 07:33:20;;;;;;;;;;;9.60;87.20;;;;;;5006641;28;19925;-43
2020/12/16 07:35:47;;;;;;;;;;;9.60;87.10;;;;;;5006765;28;20357;-45
2020/12/16 07:38:16;;;;;;;;;;;9.60;87.10;;;;;;5005440;28;19928;-44
2020/12/16 07:40:50;;;;;;;;;;;9.60;87.10;;;;;;5005274;28;19933;-44
2020/12/16 07:43:17;;;;;;;;;;;9.60;87.20;;;;;;5005082;28;20016;-44
2020/12/16 07:45:43;;;;;;;;;;;9.60;87.20;;;;;;5005513;28;19929;-44
2020/12/16 07:48:16;;;;;;;;;;;9.60;87.30;;;;;;5003235;28;19929;-44
2020/12/16 07:50:42;;;;;;;;;;;9.70;87.20;;;;;;5006522;28;19925;-44
2020/12/16 07:53:08;;;;;;;;;;;9.70;87.20;;;;;;5005629;28;20390;-44
2020/12/16 07:55:39;;;;;;;;;;;9.70;87.20;;;;;;5004319;28;19936;-44
2020/12/16 07:58:08;;;;;;;;;;;9.70;87.20;;;;;;5004352;28;19929;-44
2020/12/16 08:00:35;;;;;;;;;;;9.70;87.20;;;;;;5004772;28;21607;-44
2020/12/16 08:03:02;;;;;;;;;;;9.70;87.20;;;;;;5004697;28;19936;-44
2020/12/16 08:05:30;;;;;;;;;;;9.70;87.20;;;;;;5003506;28;20015;-44
2020/12/16 08:08:00;;;;;;;;;;;9.80;87.20;;;;;;5007370;28;20348;-44
2020/12/16 08:10:27;;;;;;;;;;;9.80;87.20;;;;;;5008393;28;20269;-44
2020/12/16 08:12:54;;;;;;;;;;;9.80;87.20;;;;;;5004571;28;19983;-45
2020/12/16 08:15:21;;;;;;;;;;;9.80;87.30;;;;;;5003320;28;19937;-44
2020/12/16 08:17:51;;;;;;;;;;;9.80;87.20;;;;;;5005828;28;20315;-44
2020/12/16 08:20:18;;;;;;;;;;;9.80;87.20;;;;;;5001714;28;19930;-43
2020/12/16 08:22:48;;;;;;;;;;;9.80;87.40;;;;;;5003076;28;19939;-43
2020/12/16 08:25:16;;;;;;;;;;;9.80;87.40;;;;;;4999924;28;19940;-44
2020/12/16 08:27:48;;;;;;;;;;;9.80;87.40;;;;;;5003873;28;19929;-44
2020/12/16 08:30:20;;;;;;;;;;;9.80;87.40;;;;;;5002602;28;20301;-43
2020/12/16 08:33:01;;;;;;;;;;;9.90;87.40;;;;;;5005110;28;19935;-44
2020/12/16 08:35:31;;;;;;;;;;;9.90;87.40;;;;;;5006312;28;19925;-44
2020/12/16 08:38:06;;;;;;;;;;;9.90;87.40;;;;;;5006393;28;19925;-44
2020/12/16 08:40:36;;;;;;;;;;;9.90;87.40;;;;;;5006357;28;20287;-45
2020/12/16 08:43:21;;;;;;;;;;;9.90;87.40;;;;;;5007120;28;19929;-44
2020/12/16 08:45:56;;;;;;;;;;;9.90;87.40;;;;;;5007653;28;19929;-44
2020/12/16 08:48:23;;;;;;;;;;;9.90;87.50;;;;;;5005003;28;19925;-44
2020/12/16 08:50:58;;;;;;;;;;;9.90;87.60;;;;;;5009667;28;19933;-44
2020/12/16 08:53:24;;;;;;;;;;;10.00;87.50;;;;;;5009891;28;19937;-44
2020/12/16 08:55:51;;;;;;;;;;;10.00;87.50;;;;;;5007670;28;19925;-45
2020/12/16 08:58:17;;;;;;;;;;;10.00;87.40;;;;;;5009507;28;19929;-44
2020/12/16 09:00:44;;;;;;;;;;;10.00;87.40;;;;;;5008920;28;20342;-44
2020/12/16 09:03:12;;;;;;;;;;;10.00;87.40;;;;;;4998557;28;19932;-44
2020/12/16 09:05:39;;;;;;;;;;;10.00;87.40;;;;;;5006873;28;19933;-44
2020/12/16 09:08:15;;;;;;;;;;;10.00;87.30;;;;;;5008079;28;20388;-44
2020/12/16 09:10:45;;;;;;;;;;;10.10;87.40;;;;;;5010354;28;20320;-43
2020/12/16 09:13:15;;;;;;;;;;;10.10;87.40;;;;;;5008872;28;19944;-42
2020/12/16 09:15:47;;;;;;;;;;;10.10;87.50;;;;;;5007825;28;19930;-42
2020/12/16 09:18:13;;;;;;;;;;;10.10;87.50;;;;;;5009964;28;19930;-44
2020/12/16 09:20:40;;;;;;;;;;;10.20;87.60;;;;;;5008440;28;20262;-45
2020/12/16 09:23:07;;;;;;;;;;;10.20;87.50;;;;;;5009865;28;19933;-44
2020/12/16 09:25:33;;;;;;;;;;;10.20;87.50;;;;;;5009713;28;20353;-43
2020/12/16 09:28:00;;;;;;;;;;;10.30;87.40;;;;;;5005867;28;20021;-44
2020/12/16 09:30:30;;;;;;;;;;;10.30;87.40;;;;;;5008638;28;20297;-44
2020/12/16 09:32:57;;;;;;;;;;;10.30;87.40;;;;;;5005787;28;19931;-43
2020/12/16 09:35:24;;;;;;;;;;;10.30;87.40;;;;;;5005668;28;20266;-44
2020/12/16 09:37:51;;;;;;;;;;;10.30;87.30;;;;;;5010574;28;19924;-42
2020/12/16 09:40:21;;;;;;;;;;;10.40;87.30;;;;;;5008095;28;19936;-43
2020/12/16 09:42:55;;;;;;;;;;;10.40;87.40;;;;;;5006183;28;19944;-42
2020/12/16 09:45:23;;;;;;;;;;;10.40;87.40;;;;;;5007977;28;19979;-43
2020/12/16 09:47:51;;;;;;;;;;;10.40;87.30;;;;;;5009025;28;19929;-43
2020/12/16 09:50:28;;;;;;;;;;;10.40;87.30;;;;;;5003784;28;19961;-44
2020/12/16 09:53:00;;;;;;;;;;;10.40;87.00;;;;;;5007350;28;19932;-44
2020/12/16 09:55:30;;;;;;;;;;;10.40;86.90;;;;;;5008971;28;19948;-44
2020/12/16 09:58:11;;;;;;;;;;;10.40;86.80;;;;;;5022746;28;19987;-44
2020/12/16 10:00:38;;;;;;;;;;;10.40;87.00;;;;;;5004938;28;20273;-43
2020/12/16 10:03:12;;;;;;;;;;;10.40;87.00;;;;;;5012391;28;20064;-43
2020/12/16 10:05:39;;;;;;;;;;;10.50;87.00;;;;;;5007888;28;20015;-42
2020/12/16 10:08:12;;;;;;;;;;;10.50;86.90;;;;;;5009885;28;20395;-42
2020/12/16 10:10:39;;;;;;;;;;;10.50;86.70;;;;;;5006794;28;19929;-43
2020/12/16 10:13:05;;;;;;;;;;;10.50;86.80;;;;;;5009472;28;19929;-42
2020/12/16 10:15:31;;;;;;;;;;;10.60;86.90;;;;;;5009753;28;20384;-44
2020/12/16 10:17:58;;;;;;;;;;;10.60;87.00;;;;;;5007382;28;19925;-44
2020/12/16 10:20:25;;;;;;;;;;;10.60;87.00;;;;;;5006923;28;19925;-44
2020/12/16 10:22:54;;;;;;;;;;;10.70;87.00;;;;;;5007224;28;19976;-44
2020/12/16 10:25:21;;;;;;;;;;;10.70;87.00;;;;;;5005440;28;19926;-45
2020/12/16 10:27:48;;;;;;;;;;;10.80;86.70;;;;;;5006861;28;20023;-44
2020/12/16 10:30:14;;;;;;;;;;;10.80;86.50;;;;;;5001522;28;19933;-44
2020/12/16 10:32:40;;;;;;;;;;;10.80;86.00;;;;;;4999681;28;19948;-42
2020/12/16 10:35:07;;;;;;;;;;;10.80;86.20;;;;;;5001398;28;20632;-42
2020/12/16 10:37:35;;;;;;;;;;;10.90;86.20;;;;;;5006154;28;19926;-42
2020/12/16 10:40:03;;;;;;;;;;;10.90;86.00;;;;;;5002628;28;19935;-42
2020/12/16 10:42:30;;;;;;;;;;;10.90;86.20;;;;;;4998798;28;19941;-45
2020/12/16 10:44:56;;;;;;;;;;;10.90;85.90;;;;;;5002945;28;19929;-44
2020/12/16 10:47:22;;;;;;;;;;;10.90;85.90;;;;;;5008555;28;19929;-45
2020/12/16 10:49:49;;;;;;;;;;;10.90;85.80;;;;;;5004659;28;20016;-44
2020/12/16 10:52:15;;;;;;;;;;;10.90;85.70;;;;;;5007917;28;19933;-44
2020/12/16 10:54:44;;;;;;;;;;;10.90;85.90;;;;;;5010007;28;19932;-47
2020/12/16 10:57:10;;;;;;;;;;;10.90;86.00;;;;;;5011312;28;19925;-46
2020/12/16 10:59:37;;;;;;;;;;;11.00;86.00;;;;;;5006990;28;19987;-45
2020/12/16 11:02:09;;;;;;;;;;;11.00;85.90;;;;;;5007626;28;20015;-43
2020/12/16 11:04:36;;;;;;;;;;;11.00;85.50;;;;;;5007476;28;20360;-43
2020/12/16 11:07:05;;;;;;;;;;;11.00;85.30;;;;;;5007182;28;20309;-45
2020/12/16 11:09:31;;;;;;;;;;;11.00;85.30;;;;;;5007373;28;20296;-45
2020/12/16 11:11:57;;;;;;;;;;;11.00;85.30;;;;;;5009167;28;20476;-45
2020/12/16 11:14:25;;;;;;;;;;;11.00;85.50;;;;;;5006330;28;19932;-43
2020/12/16 11:16:53;;;;;;;;;;;11.00;85.60;;;;;;5001599;28;19940;-45
2020/12/16 11:19:19;;;;;;;;;;;11.00;85.70;;;;;;5004925;28;20011;-46
2020/12/16 11:21:49;;;;;;;;;;;11.00;85.80;;;;;;5008219;28;19929;-46
2020/12/16 11:24:16;;;;;;;;;;;11.10;85.90;;;;;;5003322;28;19933;-43
2020/12/16 11:26:45;;;;;;;;;;;11.10;85.90;;;;;;5005264;28;19933;-44
2020/12/16 11:29:11;;;;;;;;;;;11.10;86.00;;;;;;5006449;28;20284;-44
2020/12/16 11:31:41;;;;;;;;;;;11.20;85.90;;;;;;5009102;28;19937;-45
2020/12/16 11:34:07;;;;;;;;;;;11.20;85.90;;;;;;5009004;28;19932;-45
2020/12/16 11:36:35;;;;;;;;;;;11.20;85.90;;;;;;5007063;28;19925;-44
2020/12/16 11:39:01;;;;;;;;;;;11.20;85.80;;;;;;5006589;28;19937;-44
2020/12/16 11:41:27;;;;;;;;;;;11.30;85.80;;;;;;5004212;28;19933;-44
2020/12/16 11:43:54;;;;;;;;;;;11.30;85.80;;;;;;5007476;28;19933;-46
2020/12/16 11:46:20;;;;;;;;;;;11.30;85.80;;;;;;5008389;28;19935;-44
2020/12/16 11:48:47;;;;;;;;;;;11.30;85.80;;;;;;5007487;28;20405;-43
2020/12/16 11:51:14;;;;;;;;;;;11.30;85.90;;;;;;5007469;28;20709;-44
2020/12/16 11:53:40;;;;;;;;;;;11.40;85.90;;;;;;5007603;28;19937;-43
2020/12/16 11:56:09;;;;;;;;;;;11.40;86.00;;;;;;5005025;28;19933;-44
2020/12/16 11:58:35;;;;;;;;;;;11.50;86.10;;;;;;5005441;28;19925;-44
2020/12/16 12:01:01;;;;;;;;;;;11.50;85.90;;;;;;5004327;28;19929;-45
2020/12/16 12:03:28;;;;;;;;;;;11.50;85.70;;;;;;5007399;28;19972;-46
2020/12/16 12:05:55;;;;;;;;;;;11.50;85.70;;;;;;5003855;28;20388;-45
2020/12/16 12:08:23;;;;;;;;;;;11.50;85.60;;;;;;5005246;28;19937;-45
2020/12/16 12:10:50;;;;;;;;;;;11.60;85.50;;;;;;5004062;28;19926;-43
2020/12/16 12:13:17;;;;;;;;;;;11.60;85.10;;;;;;5007043;28;19934;-47
2020/12/16 12:15:44;;;;;;;;;;;11.60;85.10;;;;;;5007154;28;19929;-45
2020/12/16 12:18:10;;;;;;;;;;;11.60;85.10;;;;;;5005748;28;20385;-44
2020/12/16 12:20:37;;;;;;;;;;;11.60;85.10;;;;;;5003885;28;19956;-45
2020/12/16 12:23:03;;;;;;;;;;;11.60;84.90;;;;;;5009533;28;20285;-44
2020/12/16 12:25:30;;;;;;;;;;;11.60;85.10;;;;;;5007123;28;19929;-45
2020/12/16 12:27:56;;;;;;;;;;;11.60;84.90;;;;;;5003721;28;19933;-44
2020/12/16 12:30:22;;;;;;;;;;;11.60;84.70;;;;;;5006815;28;19936;-45
2020/12/16 12:32:49;;;;;;;;;;;11.60;84.90;;;;;;4998885;28;20023;-45
2020/12/16 12:35:15;;;;;;;;;;;11.60;84.90;;;;;;5005253;28;19987;-46
2020/12/16 12:37:42;;;;;;;;;;;11.60;84.90;;;;;;5004182;28;19936;-46
2020/12/16 12:40:08;;;;;;;;;;;11.70;84.90;;;;;;5003882;28;20281;-45
2020/12/16 12:42:35;;;;;;;;;;;11.70;84.70;;;;;;4993222;28;20424;-46
2020/12/16 12:45:01;;;;;;;;;;;11.70;84.50;;;;;;4977743;28;19968;-45
2020/12/16 12:47:28;;;;;;;;;;;11.70;84.70;;;;;;5006852;28;19944;-44
2020/12/16 12:49:54;;;;;;;;;;;11.70;84.40;;;;;;5004198;28;20016;-46
2020/12/16 12:52:21;;;;;;;;;;;11.70;84.20;;;;;;5001991;28;19960;-46
2020/12/16 12:54:47;;;;;;;;;;;11.70;84.20;;;;;;5002181;28;19933;-44
2020/12/16 12:57:13;;;;;;;;;;;11.70;84.30;;;;;;5003631;28;19933;-46
2020/12/16 12:59:54;;;;;;;;;;;11.70;84.20;;;;;;5004199;28;19925;-45
2020/12/16 13:02:20;;;;;;;;;;;11.70;84.20;;;;;;5004174;28;20403;-44
2020/12/16 13:04:46;;;;;;;;;;;11.70;84.10;;;;;;5005292;28;19929;-46
2020/12/16 13:07:14;;;;;;;;;;;11.80;83.40;;;;;;5006568;28;19997;-45
2020/12/16 13:09:41;;;;;;;;;;;11.80;83.40;;;;;;5007326;28;20028;-43
2020/12/16 13:12:07;;;;;;;;;;;11.70;83.70;;;;;;5004534;28;19939;-46
2020/12/16 13:14:38;;;;;;;;;;;11.70;83.30;;;;;;5000589;28;19933;-46
2020/12/16 13:17:04;;;;;;;;;;;11.70;83.40;;;;;;5009421;28;19929;-46
2020/12/16 13:19:30;;;;;;;;;;;11.60;83.40;;;;;;5006715;28;20559;-47
2020/12/16 13:21:56;;;;;;;;;;;11.60;83.30;;;;;;5006840;28;19925;-46
2020/12/16 13:24:24;;;;;;;;;;;11.60;83.40;;;;;;5006139;28;20031;-44
2020/12/16 13:26:51;;;;;;;;;;;11.60;83.60;;;;;;5005978;28;19932;-43
2020/12/16 13:29:17;;;;;;;;;;;11.60;83.40;;;;;;5008453;28;19929;-46
2020/12/16 13:31:47;;;;;;;;;;;11.60;83.60;;;;;;5006712;28;19968;-44
2020/12/16 13:34:14;;;;;;;;;;;11.60;83.70;;;;;;5005760;28;19929;-47
2020/12/16 13:36:40;;;;;;;;;;;11.60;83.60;;;;;;5006225;28;19933;-45
2020/12/16 13:39:07;;;;;;;;;;;11.60;83.40;;;;;;5008535;28;20261;-43
2020/12/16 13:41:33;;;;;;;;;;;11.60;83.40;;;;;;5014160;28;19925;-44
2020/12/16 13:43:59;;;;;;;;;;;11.60;83.40;;;;;;5008338;28;20385;-44
2020/12/16 13:46:25;;;;;;;;;;;11.60;83.10;;;;;;5004213;28;20012;-45
2020/12/16 13:48:53;;;;;;;;;;;11.60;83.10;;;;;;5009256;28;20005;-44
2020/12/16 13:51:20;;;;;;;;;;;11.60;83.20;;;;;;5008914;28;20373;-43
2020/12/16 13:53:46;;;;;;;;;;;11.60;83.00;;;;;;5009203;28;19947;-46
2020/12/16 13:56:13;;;;;;;;;;;11.60;82.90;;;;;;5008443;28;19951;-46
2020/12/16 13:58:39;;;;;;;;;;;11.60;82.70;;;;;;5009743;28;19932;-43
2020/12/16 14:01:07;;;;;;;;;;;11.60;82.80;;;;;;5008537;28;19933;-46
2020/12/16 14:03:35;;;;;;;;;;;11.60;82.90;;;;;;5008469;28;19925;-46
2020/12/16 14:06:02;;;;;;;;;;;11.50;83.00;;;;;;5008867;28;20038;-44
2020/12/16 14:08:31;;;;;;;;;;;11.60;83.00;;;;;;4992444;28;19925;-44
2020/12/16 14:10:57;;;;;;;;;;;11.50;83.10;;;;;;5004741;28;20440;-46
2020/12/16 14:13:24;;;;;;;;;;;11.60;83.10;;;;;;5006320;28;20145;-46
2020/12/16 14:15:50;;;;;;;;;;;11.60;83.20;;;;;;5007461;28;20400;-45
2020/12/16 14:18:16;;;;;;;;;;;11.60;83.40;;;;;;5006551;28;20111;-47
2020/12/16 14:20:42;;;;;;;;;;;11.60;83.70;;;;;;5004759;28;20020;-46
2020/12/16 14:23:08;;;;;;;;;;;11.60;83.70;;;;;;5007467;28;20488;-44
2020/12/16 14:25:35;;;;;;;;;;;11.60;83.70;;;;;;5006568;28;19932;-46
2020/12/16 14:28:01;;;;;;;;;;;11.60;83.70;;;;;;5008112;28;19936;-43
2020/12/16 14:30:29;;;;;;;;;;;11.60;83.80;;;;;;5012114;28;20408;-45
2020/12/16 14:32:56;;;;;;;;;;;11.60;83.80;;;;;;5006920;28;19932;-44